Time;durP1;ratioP1;P1;durP2;ratioP2;P2;SDS_P1;SDS_P2;PMS_P1;PMS_P2;Temp;Humidity;BMP_temperature;BMP_pressure;BME280_temperature;BME280_humidity;BME280_pressure;Samples;Min_cycle;Max_cycle;Signal;HPM_P1;HPM_P2
2021/01/21 00:00:48;;;;;;;1.70;0.90;;;5.20;99.90;;;;;;5049389;28;20436;-78
2021/01/21 00:03:13;;;;;;;1.33;0.80;;;5.40;99.90;;;;;;5049944;28;20730;-78
2021/01/21 00:05:39;;;;;;;0.67;0.60;;;5.40;99.60;;;;;;5049777;28;20385;-78
2021/01/21 00:08:05;;;;;;;0.97;0.60;;;5.40;99.00;;;;;;5050147;28;20386;-79
2021/01/21 00:10:30;;;;;;;0.80;0.70;;;5.10;99.90;;;;;;5049436;28;20761;-78
2021/01/21 00:12:56;;;;;;;0.85;0.63;;;5.50;98.60;;;;;;5050146;28;20389;-78
2021/01/21 00:15:22;;;;;;;0.50;0.50;;;6.50;98.90;;;;;;5049229;28;20874;-78
2021/01/21 00:17:47;;;;;;;0.80;0.60;;;6.40;99.90;;;;;;5050085;28;20378;-78
2021/01/21 00:20:13;;;;;;;1.00;0.70;;;6.30;99.10;;;;;;5050002;28;20384;-78
2021/01/21 00:22:39;;;;;;;0.50;0.50;;;5.70;96.60;;;;;;5049376;28;20393;-79
2021/01/21 00:25:05;;;;;;;1.00;0.70;;;7.20;96.70;;;;;;5049909;28;20718;-78
2021/01/21 00:27:31;;;;;;;0.80;0.50;;;6.10;97.80;;;;;;5049048;28;20393;-78
2021/01/21 00:29:57;;;;;;;2.80;0.60;;;6.20;99.90;;;;;;5048575;28;20781;-78
2021/01/21 00:32:23;;;;;;;1.10;0.65;;;6.60;96.60;;;;;;5049256;28;20382;-78
2021/01/21 00:34:48;;;;;;;0.80;0.70;;;7.20;96.50;;;;;;5049806;28;20629;-78
2021/01/21 00:37:14;;;;;;;1.80;1.50;;;7.10;96.70;;;;;;5053441;28;20382;-79
2021/01/21 00:39:40;;;;;;;1.37;0.70;;;6.30;98.40;;;;;;5052727;28;20385;-79
2021/01/21 00:42:05;;;;;;;2.00;0.60;;;7.80;94.60;;;;;;5052290;28;20483;-78
2021/01/21 00:44:31;;;;;;;0.60;0.50;;;7.60;93.10;;;;;;5052757;28;20467;-78
2021/01/21 00:46:57;;;;;;;1.40;0.60;;;6.60;97.90;;;;;;5068828;28;20719;-78
2021/01/21 00:49:22;;;;;;;0.70;0.43;;;7.90;93.70;;;;;;5052641;28;20370;-78
2021/01/21 00:51:49;;;;;;;1.80;0.60;;;8.10;93.50;;;;;;5053061;28;20444;-78
2021/01/21 00:54:14;;;;;;;1.52;0.60;;;7.90;95.60;;;;;;5053208;28;20417;-79
2021/01/21 00:56:41;;;;;;;0.60;0.60;;;6.80;97.00;;;;;;5052529;28;20393;-78
2021/01/21 00:59:07;;;;;;;0.80;0.80;;;7.80;94.20;;;;;;5051984;28;20520;-78
2021/01/21 01:01:33;;;;;;;0.80;0.68;;;7.90;94.10;;;;;;5051239;28;20463;-77
2021/01/21 01:03:58;;;;;;;1.38;0.70;;;7.10;93.70;;;;;;5053174;28;20970;-78
2021/01/21 01:06:24;;;;;;;1.13;0.80;;;7.30;96.20;;;;;;5052179;28;20845;-78
2021/01/21 01:08:49;;;;;;;0.80;0.55;;;7.30;93.00;;;;;;5052683;28;20392;-78
2021/01/21 01:11:15;;;;;;;1.08;0.60;;;6.90;92.00;;;;;;5053207;28;20384;-78
2021/01/21 01:13:41;;;;;;;1.92;0.80;;;7.30;94.10;;;;;;5052136;28;20452;-78
2021/01/21 01:16:07;;;;;;;0.77;0.50;;;8.80;90.90;;;;;;5053081;28;20384;-78
2021/01/21 01:18:32;;;;;;;1.00;0.70;;;8.50;87.30;;;;;;5052139;28;20401;-78
2021/01/21 01:20:58;;;;;;;0.90;0.60;;;10.10;85.10;;;;;;5052917;28;20464;-78
2021/01/21 01:23:23;;;;;;;0.90;0.60;;;8.30;89.90;;;;;;5051993;28;20419;-78
2021/01/21 01:25:53;;;;;;;0.67;0.40;;;9.20;75.90;;;;;;5052575;28;20761;-80
2021/01/21 01:28:18;;;;;;;0.60;0.50;;;10.50;67.60;;;;;;5052734;28;20422;-78
2021/01/21 01:30:44;;;;;;;1.20;0.60;;;11.60;76.00;;;;;;5052213;28;20386;-78
2021/01/21 01:33:10;;;;;;;0.90;0.70;;;11.30;62.80;;;;;;5052670;28;20405;-79
2021/01/21 01:35:35;;;;;;;2.17;0.57;;;10.90;60.90;;;;;;5050860;28;20392;-77
2021/01/21 01:38:01;;;;;;;0.90;0.70;;;11.00;68.60;;;;;;5052727;28;20409;-77
2021/01/21 01:40:26;;;;;;;2.20;0.60;;;11.20;58.60;;;;;;5051638;28;20394;-77
2021/01/21 01:42:52;;;;;;;1.10;0.60;;;10.70;61.10;;;;;;5052310;28;20472;-77
2021/01/21 01:45:18;;;;;;;1.00;0.60;;;10.60;75.60;;;;;;5051113;28;20421;-78
2021/01/21 01:47:45;;;;;;;1.83;0.60;;;10.10;67.90;;;;;;5051075;28;20380;-78
2021/01/21 01:50:13;;;;;;;0.70;0.52;;;9.20;69.60;;;;;;5051945;28;20385;-79
2021/01/21 01:52:42;;;;;;;1.00;0.50;;;10.00;70.90;;;;;;5051072;28;20425;-78
2021/01/21 01:55:16;;;;;;;0.70;0.43;;;10.20;76.60;;;;;;5052243;28;20489;-79
2021/01/21 01:57:43;;;;;;;1.40;0.50;;;9.50;81.20;;;;;;5051747;28;20385;-79
2021/01/21 02:00:09;;;;;;;0.65;0.43;;;11.00;71.20;;;;;;5052469;28;20385;-78
2021/01/21 02:02:35;;;;;;;0.60;0.50;;;10.80;59.30;;;;;;5051995;28;20464;-77
2021/01/21 02:05:01;;;;;;;1.63;0.52;;;12.20;58.90;;;;;;5051206;28;20524;-78
2021/01/21 02:07:27;;;;;;;1.60;0.80;;;11.80;66.00;;;;;;5051371;28;20889;-77
2021/01/21 02:09:55;;;;;;;1.30;0.43;;;11.80;55.40;;;;;;5052508;28;20403;-78
2021/01/21 02:12:30;;;;;;;1.10;0.60;;;12.40;64.20;;;;;;5052063;28;20389;-78
2021/01/21 02:15:07;;;;;;;0.95;0.60;;;11.90;57.80;;;;;;5052512;28;20428;-79
2021/01/21 02:17:52;;;;;;;1.02;0.60;;;11.80;50.40;;;;;;5051076;28;20409;-78
2021/01/21 02:21:03;;;;;;;0.60;0.50;;;11.40;51.00;;;;;;5051903;28;20423;-78
2021/01/21 02:24:02;;;;;;;1.08;0.70;;;11.60;50.40;;;;;;5051129;28;20478;-78
2021/01/21 02:26:37;;;;;;;1.20;0.57;;;11.60;55.60;;;;;;5051047;28;20419;-78
2021/01/21 02:29:03;;;;;;;0.82;0.57;;;11.20;55.40;;;;;;5050541;28;20389;-78
2021/01/21 02:31:50;;;;;;;1.10;0.60;;;10.90;58.50;;;;;;5050690;28;20393;-78
2021/01/21 02:34:53;;;;;;;0.63;0.40;;;10.70;60.90;;;;;;5051646;28;20532;-78
2021/01/21 02:37:22;;;;;;;3.83;0.60;;;9.80;67.80;;;;;;5051434;28;20381;-79
2021/01/21 02:39:49;;;;;;;0.70;0.55;;;10.10;65.50;;;;;;5051025;28;20937;-79
2021/01/21 02:42:16;;;;;;;0.63;0.50;;;9.40;67.70;;;;;;5050821;28;20462;-79
2021/01/21 02:44:42;;;;;;;1.30;0.90;;;9.60;70.10;;;;;;5050471;28;20412;-79
2021/01/21 02:47:08;;;;;;;0.60;0.50;;;9.40;81.30;;;;;;5051114;28;20835;-79
2021/01/21 02:49:34;;;;;;;1.58;0.70;;;10.10;82.50;;;;;;5050546;28;20373;-79
2021/01/21 02:52:00;;;;;;;0.90;0.50;;;9.40;79.40;;;;;;5050868;28;20432;-79
2021/01/21 02:55:04;;;;;;;0.80;0.45;;;9.50;74.70;;;;;;5050752;28;20456;-79
2021/01/21 02:57:44;;;;;;;2.30;0.50;;;9.40;65.20;;;;;;5028061;28;20499;-79
2021/01/21 03:00:11;;;;;;;1.08;0.50;;;9.50;73.90;;;;;;5040550;28;20396;-79
2021/01/21 03:02:50;;;;;;;0.60;0.50;;;9.20;70.60;;;;;;5050266;28;20413;-79
2021/01/21 03:05:18;;;;;;;0.73;0.55;;;9.30;79.70;;;;;;5049693;28;20381;-79
2021/01/21 03:07:45;;;;;;;1.40;0.50;;;9.30;76.60;;;;;;5050137;28;20581;-79
2021/01/21 03:10:16;;;;;;;0.98;0.70;;;9.20;89.80;;;;;;5051118;28;20381;-79
2021/01/21 03:12:41;;;;;;;1.30;0.60;;;8.40;76.90;;;;;;5049866;28;20397;-78
2021/01/21 03:15:08;;;;;;;0.90;0.57;;;8.70;78.10;;;;;;5049487;28;20935;-79
2021/01/21 03:17:33;;;;;;;0.95;0.60;;;8.40;83.30;;;;;;5050073;28;20423;-79
2021/01/21 03:19:59;;;;;;;0.90;0.60;;;9.50;90.00;;;;;;5050712;28;20385;-79
2021/01/21 03:22:25;;;;;;;1.63;0.60;;;9.00;80.00;;;;;;5050917;28;20458;-79
2021/01/21 03:24:50;;;;;;;0.80;0.60;;;9.20;72.20;;;;;;5050024;28;20881;-78
2021/01/21 03:27:16;;;;;;;0.77;0.55;;;9.20;82.30;;;;;;5050630;28;20396;-78
2021/01/21 03:29:42;;;;;;;0.73;0.60;;;8.70;75.70;;;;;;5049868;28;20384;-79
2021/01/21 03:32:07;;;;;;;2.10;0.40;;;9.50;69.40;;;;;;5050541;28;20378;-79
2021/01/21 03:34:36;;;;;;;0.50;0.40;;;10.60;78.00;;;;;;5048425;28;20417;-79
2021/01/21 03:37:01;;;;;;;1.05;0.68;;;10.20;66.90;;;;;;5050712;28;20386;-79
2021/01/21 03:39:27;;;;;;;1.00;0.80;;;10.50;65.80;;;;;;5050156;28;20951;-79
2021/01/21 03:41:53;;;;;;;1.08;0.60;;;10.30;62.60;;;;;;5050239;28;20381;-79
2021/01/21 03:44:19;;;;;;;2.05;0.77;;;10.50;59.30;;;;;;5049350;28;20401;-79
2021/01/21 03:46:45;;;;;;;0.82;0.70;;;11.10;59.80;;;;;;5048497;28;20393;-79
2021/01/21 03:49:10;;;;;;;1.00;0.70;;;11.50;66.20;;;;;;5050359;28;20388;-79
2021/01/21 03:51:36;;;;;;;0.80;0.60;;;11.80;57.20;;;;;;5049221;28;20401;-79
2021/01/21 03:54:02;;;;;;;0.40;0.40;;;11.40;55.20;;;;;;5049955;28;20417;-79
2021/01/21 03:56:28;;;;;;;0.52;0.43;;;11.70;61.80;;;;;;5049606;28;20385;-79
2021/01/21 03:58:53;;;;;;;1.10;0.50;;;11.40;56.50;;;;;;5050046;28;20378;-79
2021/01/21 04:01:19;;;;;;;0.80;0.40;;;11.80;53.80;;;;;;5050569;28;20377;-79
2021/01/21 04:03:45;;;;;;;1.07;0.50;;;11.50;65.30;;;;;;5048125;28;20407;-79
2021/01/21 04:06:11;;;;;;;1.10;0.70;;;11.30;57.80;;;;;;5050202;28;20413;-79
2021/01/21 04:08:37;;;;;;;1.90;0.57;;;11.20;58.00;;;;;;5049406;28;20439;-78
2021/01/21 04:11:03;;;;;;;0.70;0.60;;;11.40;57.40;;;;;;5052051;28;20945;-78
2021/01/21 04:13:28;;;;;;;1.23;0.63;;;12.10;64.20;;;;;;5053719;28;20409;-78
2021/01/21 04:15:54;;;;;;;0.93;0.50;;;13.00;54.90;;;;;;5053425;28;20389;-78
2021/01/21 04:18:20;;;;;;;0.70;0.50;;;12.40;53.40;;;;;;5053105;28;20496;-81
2021/01/21 04:20:45;;;;;;;1.20;0.70;;;12.10;59.70;;;;;;5053343;28;20476;-79
2021/01/21 04:23:11;;;;;;;0.70;0.50;;;12.60;52.80;;;;;;5054092;28;20457;-80
2021/01/21 04:25:37;;;;;;;0.60;0.40;;;13.10;53.20;;;;;;5053535;28;20396;-79
2021/01/21 04:28:03;;;;;;;0.90;0.70;;;12.30;60.10;;;;;;5053907;28;20387;-79
2021/01/21 04:30:29;;;;;;;1.40;0.50;;;12.40;53.00;;;;;;5053800;28;20384;-79
2021/01/21 04:32:55;;;;;;;0.50;0.40;;;12.70;53.80;;;;;;5053047;28;20399;-80
2021/01/21 04:35:21;;;;;;;1.23;0.50;;;12.80;53.80;;;;;;5053571;28;20409;-79
2021/01/21 04:37:46;;;;;;;1.40;0.70;;;12.30;61.50;;;;;;5052854;28;20377;-79
2021/01/21 04:40:12;;;;;;;0.70;0.60;;;12.80;54.00;;;;;;5053989;28;20416;-80
2021/01/21 04:42:38;;;;;;;0.90;0.60;;;12.30;53.20;;;;;;5052508;28;20903;-79
2021/01/21 04:45:05;;;;;;;1.27;0.90;;;13.00;61.00;;;;;;5053723;28;20396;-80
2021/01/21 04:47:32;;;;;;;0.70;0.50;;;12.50;60.10;;;;;;5053283;28;20389;-78
2021/01/21 04:49:59;;;;;;;0.60;0.60;;;13.50;64.00;;;;;;5053260;28;20394;-79
2021/01/21 04:52:28;;;;;;;0.60;0.40;;;13.00;55.00;;;;;;5053342;28;20840;-79
2021/01/21 04:55:07;;;;;;;0.60;0.40;;;13.10;55.30;;;;;;5052645;28;20518;-76
2021/01/21 04:57:45;;;;;;;1.40;0.50;;;12.60;54.60;;;;;;5053377;28;20444;-77
2021/01/21 05:00:11;;;;;;;1.00;0.60;;;12.60;55.90;;;;;;5052641;28;20443;-79
2021/01/21 05:02:40;;;;;;;0.88;0.50;;;12.30;56.10;;;;;;5053253;28;20401;-79
2021/01/21 05:05:08;;;;;;;0.80;0.50;;;12.50;56.70;;;;;;5053756;28;20381;-78
2021/01/21 05:07:34;;;;;;;0.50;0.40;;;12.10;55.40;;;;;;5053110;28;20412;-78
2021/01/21 05:10:00;;;;;;;0.60;0.45;;;12.20;58.00;;;;;;5053418;28;20463;-80
2021/01/21 05:12:26;;;;;;;0.50;0.40;;;12.20;58.60;;;;;;5053924;28;20496;-79
2021/01/21 05:14:51;;;;;;;1.20;0.50;;;12.20;63.80;;;;;;5052770;28;20513;-78
2021/01/21 05:17:18;;;;;;;0.90;0.57;;;12.50;58.40;;;;;;5052313;28;20480;-78
2021/01/21 05:19:46;;;;;;;0.70;0.60;;;12.00;59.00;;;;;;5052201;28;20378;-78
2021/01/21 05:22:12;;;;;;;0.88;0.65;;;12.10;58.70;;;;;;5051646;28;20392;-78
2021/01/21 05:24:37;;;;;;;0.70;0.60;;;12.00;59.30;;;;;;5051979;28;20377;-78
2021/01/21 05:27:04;;;;;;;0.52;0.40;;;11.80;60.00;;;;;;5052589;28;20912;-78
2021/01/21 05:29:30;;;;;;;1.10;0.45;;;11.90;60.60;;;;;;5051334;28;20475;-77
2021/01/21 05:31:56;;;;;;;0.60;0.50;;;12.20;71.60;;;;;;5049007;28;20399;-78
2021/01/21 05:34:22;;;;;;;0.80;0.50;;;12.10;61.40;;;;;;5052617;28;20410;-78
2021/01/21 05:36:48;;;;;;;0.57;0.30;;;12.40;62.70;;;;;;5051480;28;20389;-78
2021/01/21 05:39:16;;;;;;;0.50;0.30;;;12.20;62.90;;;;;;5052466;28;20386;-79
2021/01/21 05:41:43;;;;;;;0.60;0.40;;;12.10;73.00;;;;;;5051608;28;20385;-78
2021/01/21 05:44:08;;;;;;;0.75;0.47;;;12.10;63.40;;;;;;5052333;28;20462;-79
2021/01/21 05:46:35;;;;;;;0.70;0.40;;;12.10;64.10;;;;;;5050719;28;20858;-78
2021/01/21 05:49:01;;;;;;;0.50;0.40;;;12.10;66.70;;;;;;5051930;28;20862;-78
2021/01/21 05:51:30;;;;;;;0.60;0.50;;;12.10;74.10;;;;;;5052368;28;20409;-79
2021/01/21 05:53:57;;;;;;;1.20;0.60;;;13.00;76.30;;;;;;5051507;28;21007;-79
2021/01/21 05:56:25;;;;;;;0.40;0.30;;;11.90;75.80;;;;;;5051353;28;20386;-78
2021/01/21 05:58:52;;;;;;;0.68;0.50;;;11.80;65.60;;;;;;5051751;28;20456;-79
2021/01/21 06:01:20;;;;;;;0.50;0.40;;;12.10;69.80;;;;;;5052561;28;20396;-78
2021/01/21 06:03:47;;;;;;;0.70;0.60;;;12.10;66.10;;;;;;5051739;28;20464;-79
2021/01/21 06:06:12;;;;;;;0.60;0.30;;;12.20;65.90;;;;;;5052310;28;20381;-79
2021/01/21 06:08:42;;;;;;;1.00;0.52;;;12.20;67.00;;;;;;5051683;28;20399;-78
2021/01/21 06:11:09;;;;;;;0.50;0.30;;;12.20;65.70;;;;;;5052269;28;20385;-78
2021/01/21 06:13:37;;;;;;;0.40;0.38;;;12.60;67.00;;;;;;5052221;28;20418;-80
2021/01/21 06:16:05;;;;;;;1.08;0.40;;;11.80;77.30;;;;;;5052035;28;20378;-79
2021/01/21 06:18:31;;;;;;;0.50;0.30;;;12.60;68.70;;;;;;5052089;28;20789;-78
2021/01/21 06:20:57;;;;;;;0.70;0.40;;;12.40;67.40;;;;;;5050026;28;20378;-78
2021/01/21 06:23:24;;;;;;;0.45;0.30;;;12.40;75.60;;;;;;5050801;28;20386;-78
2021/01/21 06:25:53;;;;;;;1.00;0.50;;;13.00;79.70;;;;;;5051271;28;20374;-79
2021/01/21 06:28:21;;;;;;;0.43;0.35;;;12.60;68.10;;;;;;5051867;28;20476;-80
2021/01/21 06:30:52;;;;;;;0.47;0.30;;;12.60;73.60;;;;;;5051256;28;20781;-80
2021/01/21 06:33:37;;;;;;;1.20;0.30;;;12.70;69.00;;;;;;5051768;28;20428;-79
2021/01/21 06:36:05;;;;;;;0.70;0.50;;;12.30;65.40;;;;;;5051199;28;20927;-78
2021/01/21 06:38:38;;;;;;;0.68;0.38;;;12.20;68.20;;;;;;5051699;28;20382;-79
2021/01/21 06:41:08;;;;;;;0.40;0.30;;;12.40;79.70;;;;;;5051645;28;20882;-78
2021/01/21 06:43:37;;;;;;;1.73;0.40;;;12.20;69.20;;;;;;5051627;28;20397;-79
2021/01/21 06:46:04;;;;;;;0.70;0.30;;;11.90;68.70;;;;;;5049915;28;20418;-78
2021/01/21 06:48:30;;;;;;;1.50;0.30;;;12.20;79.00;;;;;;5050933;28;20753;-78
2021/01/21 06:50:57;;;;;;;0.40;0.30;;;11.90;78.50;;;;;;5049996;28;20402;-78
2021/01/21 06:53:23;;;;;;;0.50;0.40;;;12.40;79.50;;;;;;5051081;28;20381;-78
2021/01/21 06:55:50;;;;;;;0.60;0.30;;;11.90;74.60;;;;;;5050461;28;20385;-78
2021/01/21 06:58:51;;;;;;;0.80;0.40;;;12.20;82.50;;;;;;5051266;28;20381;-78
2021/01/21 07:01:31;;;;;;;0.60;0.30;;;11.90;80.00;;;;;;5051272;28;20385;-79
2021/01/21 07:04:17;;;;;;;0.40;0.30;;;11.80;81.30;;;;;;5050353;28;20916;-78
2021/01/21 07:06:52;;;;;;;0.50;0.30;;;12.10;72.80;;;;;;5050709;28;20734;-78
2021/01/21 07:09:23;;;;;;;0.60;0.40;;;12.30;85.60;;;;;;5051157;28;20385;-78
2021/01/21 07:11:52;;;;;;;0.40;0.30;;;12.20;85.50;;;;;;5050644;28;20384;-79
2021/01/21 07:14:19;;;;;;;0.40;0.30;;;11.70;75.40;;;;;;5050350;28;20413;-77
2021/01/21 07:16:58;;;;;;;0.60;0.30;;;11.90;85.60;;;;;;5050581;28;20389;-77
2021/01/21 07:19:43;;;;;;;0.50;0.30;;;12.10;75.90;;;;;;5052909;28;20401;-78
2021/01/21 07:22:24;;;;;;;1.60;0.40;;;12.70;74.80;;;;;;5038228;28;20400;-80
2021/01/21 07:25:01;;;;;;;1.10;0.30;;;12.10;73.90;;;;;;5030371;28;20386;-79
2021/01/21 07:27:29;;;;;;;0.40;0.30;;;12.50;73.10;;;;;;5044179;28;20392;-81
2021/01/21 07:30:36;;;;;;;0.40;0.30;;;12.30;73.30;;;;;;5070435;28;20499;-80
2021/01/21 07:33:22;;;;;;;0.60;0.30;;;12.40;73.20;;;;;;5047338;28;20401;-78
2021/01/21 07:35:49;;;;;;;0.50;0.30;;;12.30;73.10;;;;;;5042529;28;20858;-78
2021/01/21 07:38:47;;;;;;;0.50;0.30;;;12.60;73.50;;;;;;5034907;28;20429;-80
2021/01/21 07:41:42;;;;;;;0.40;0.30;;;12.50;79.30;;;;;;5050844;28;20552;-80
2021/01/21 07:44:08;;;;;;;1.20;0.40;;;12.30;73.80;;;;;;5049838;28;20397;-80
2021/01/21 07:46:34;;;;;;;0.50;0.30;;;12.40;74.10;;;;;;5065604;28;20396;-80
2021/01/21 07:49:25;;;;;;;0.40;0.30;;;12.40;73.60;;;;;;5049627;28;20464;-79
2021/01/21 07:52:00;;;;;;;0.50;0.40;;;12.50;70.10;;;;;;5050042;28;20723;-79
2021/01/21 07:54:28;;;;;;;0.50;0.30;;;12.30;73.80;;;;;;5068611;28;20419;-80
2021/01/21 07:56:54;;;;;;;1.10;0.30;;;12.80;73.80;;;;;;5069940;28;20371;-77
2021/01/21 07:59:19;;;;;;;0.80;0.30;;;12.60;74.40;;;;;;5070572;28;20387;-78
2021/01/21 08:01:58;;;;;;;0.50;0.30;;;12.60;82.10;;;;;;5070807;28;20388;-77
2021/01/21 08:04:25;;;;;;;0.40;0.30;;;12.60;85.40;;;;;;5069324;28;20422;-78
2021/01/21 08:06:57;;;;;;;0.40;0.30;;;12.70;85.90;;;;;;5070956;28;20384;-77
2021/01/21 08:09:24;;;;;;;0.70;0.30;;;12.60;78.30;;;;;;5073496;28;20384;-79
2021/01/21 08:11:51;;;;;;;0.40;0.20;;;12.70;73.80;;;;;;5070353;28;20399;-76
2021/01/21 08:14:17;;;;;;;0.70;0.40;;;12.80;84.60;;;;;;5070583;28;20502;-80
2021/01/21 08:16:45;;;;;;;0.50;0.30;;;12.70;84.60;;;;;;5070651;28;20694;-78
2021/01/21 08:19:11;;;;;;;0.70;0.40;;;12.60;85.80;;;;;;5070558;28;20391;-81
2021/01/21 08:21:38;;;;;;;0.50;0.30;;;12.80;84.80;;;;;;5071098;28;20791;-80
2021/01/21 08:24:11;;;;;;;0.40;0.30;;;12.60;80.70;;;;;;5070388;28;20768;-80
2021/01/21 08:26:37;;;;;;;1.30;0.30;;;12.70;81.40;;;;;;5071658;28;20415;-78
2021/01/21 08:29:09;;;;;;;0.60;0.40;;;12.90;80.10;;;;;;5051394;28;20452;-83
2021/01/21 08:31:40;;;;;;;0.40;0.30;;;12.70;74.50;;;;;;5051376;28;20386;-81
2021/01/21 08:34:09;;;;;;;0.40;0.30;;;12.60;70.80;;;;;;5050259;28;20401;-78
2021/01/21 08:36:35;;;;;;;0.50;0.30;;;12.60;73.30;;;;;;5052649;28;20432;-81
2021/01/21 08:39:03;;;;;;;0.40;0.30;;;12.70;74.10;;;;;;5050054;28;20377;-80
2021/01/21 08:41:29;;;;;;;0.60;0.38;;;12.90;84.70;;;;;;5050604;28;20431;-79
2021/01/21 08:43:59;;;;;;;0.50;0.30;;;13.00;84.80;;;;;;5049744;28;20385;-80
2021/01/21 08:46:27;;;;;;;0.60;0.40;;;12.80;75.40;;;;;;5050792;28;20388;-79
2021/01/21 08:48:52;;;;;;;0.40;0.30;;;12.70;82.40;;;;;;5049763;28;20472;-80
2021/01/21 08:51:37;;;;;;;0.40;0.30;;;13.00;83.60;;;;;;5049129;28;20525;-79
2021/01/21 08:54:19;;;;;;;0.50;0.30;;;12.80;78.10;;;;;;5049946;28;20508;-80
2021/01/21 08:57:07;;;;;;;0.60;0.40;;;12.80;77.40;;;;;;5050303;28;20381;-79
2021/01/21 08:59:33;;;;;;;0.45;0.30;;;12.60;76.40;;;;;;5053697;28;20468;-78
2021/01/21 09:01:59;;;;;;;0.70;0.40;;;12.80;75.50;;;;;;5051609;28;20397;-77
2021/01/21 09:04:30;;;;;;;0.80;0.40;;;12.80;73.40;;;;;;5069070;28;20390;-79
2021/01/21 09:06:57;;;;;;;0.40;0.30;;;12.90;72.40;;;;;;5045089;28;20400;-78
2021/01/21 09:09:37;;;;;;;0.40;0.30;;;13.30;81.70;;;;;;5044159;28;20411;-78
2021/01/21 09:12:17;;;;;;;0.40;0.30;;;13.00;68.80;;;;;;5039559;28;20892;-79
2021/01/21 09:14:43;;;;;;;0.40;0.30;;;13.00;71.70;;;;;;5043181;28;20425;-77
2021/01/21 09:36:06;;;;;;;1.40;0.30;;;12.90;70.90;;;;;;5041101;23;20456;-74
2021/01/21 09:38:34;;;;;;;0.45;0.30;;;13.50;85.60;;;;;;5050386;22;20439;-72
2021/01/21 09:41:00;;;;;;;0.50;0.40;;;;;;;;;;5015839;28;20419;-80
2021/01/21 09:43:26;;;;;;;0.40;0.30;;;;;;;;;;5022135;28;20391;-75
2021/01/21 09:45:52;;;;;;;0.40;0.30;;;13.70;73.30;;;;;;5022782;28;20391;-78
2021/01/21 09:48:18;;;;;;;0.50;0.30;;;;;;;;;;5021653;28;20469;-74
2021/01/21 09:50:44;;;;;;;0.60;0.30;;;13.30;68.60;;;;;;5019733;28;20393;-77
2021/01/21 09:53:09;;;;;;;0.97;0.50;;;13.30;74.40;;;;;;5019846;28;20397;-77
2021/01/21 09:55:35;;;;;;;0.70;0.40;;;11.40;79.60;;;;;;5021868;28;21047;-74
2021/01/21 09:58:01;;;;;;;0.70;0.40;;;13.20;72.70;;;;;;5021497;28;20442;-79
2021/01/21 10:00:27;;;;;;;0.40;0.30;;;13.10;73.00;;;;;;5025093;28;20406;-78
2021/01/21 10:02:52;;;;;;;0.40;0.30;;;13.20;84.00;;;;;;5020908;28;21251;-73
2021/01/21 10:05:18;;;;;;;0.40;0.30;;;;;;;;;;5017397;28;20420;-81
2021/01/21 10:07:44;;;;;;;0.60;0.40;;;;;;;;;;5021923;28;20395;-76
2021/01/21 10:10:11;;;;;;;0.40;0.30;;;;;;;;;;5018399;28;20387;-79
2021/01/21 10:12:37;;;;;;;0.40;0.30;;;;;;;;;;5021538;28;20561;-78
2021/01/21 10:15:04;;;;;;;0.40;0.30;;;13.80;74.70;;;;;;5022037;28;20453;-79
2021/01/21 10:17:30;;;;;;;0.40;0.30;;;13.50;74.10;;;;;;5019393;28;20406;-74
2021/01/21 10:19:55;;;;;;;0.60;0.40;;;13.60;74.20;;;;;;5003643;28;20755;-75
2021/01/21 10:22:21;;;;;;;1.10;0.30;;;14.00;83.90;;;;;;5016271;28;20594;-77
2021/01/21 10:24:47;;;;;;;0.57;0.30;;;;;;;;;;5020970;28;20430;-73
2021/01/21 10:27:13;;;;;;;0.80;0.30;;;;;;;;;;5020785;28;20393;-74
2021/01/21 10:29:39;;;;;;;0.60;0.40;;;13.90;82.50;;;;;;5021907;28;20379;-76
2021/01/21 10:32:05;;;;;;;0.40;0.30;;;14.00;72.60;;;;;;5018896;28;20452;-79
2021/01/21 10:34:32;;;;;;;0.50;0.30;;;14.20;83.50;;;;;;5016094;28;21256;-76
2021/01/21 10:36:58;;;;;;;0.70;0.30;;;13.80;72.50;;;;;;5020645;28;20452;-76
2021/01/21 10:39:24;;;;;;;0.40;0.30;;;;;;;;;;5017843;28;20419;-74
2021/01/21 10:41:50;;;;;;;0.40;0.30;;;14.30;70.00;;;;;;5017793;28;20395;-77
2021/01/21 10:44:15;;;;;;;0.40;0.30;;;13.90;78.40;;;;;;5021470;28;20605;-76
2021/01/21 10:46:41;;;;;;;0.50;0.30;;;14.20;73.90;;;;;;5021812;28;21051;-74
2021/01/21 10:49:07;;;;;;;0.70;0.30;;;14.40;83.10;;;;;;5034597;28;20990;-80
2021/01/21 10:51:32;;;;;;;0.70;0.30;;;13.80;82.60;;;;;;5018056;28;20398;-75
2021/01/21 10:53:58;;;;;;;0.40;0.30;;;14.00;73.40;;;;;;5019056;28;20965;-74
2021/01/21 10:56:24;;;;;;;0.40;0.30;;;14.50;85.30;;;;;;5018968;28;20406;-74
2021/01/21 10:58:50;;;;;;;0.83;0.40;;;15.10;74.70;;;;;;5020440;28;20407;-74
2021/01/21 11:01:16;;;;;;;0.60;0.30;;;13.60;77.90;;;;;;5017265;28;20410;-74
2021/01/21 11:03:42;;;;;;;0.60;0.30;;;;;;;;;;5019357;28;20999;-75
2021/01/21 11:06:07;;;;;;;0.40;0.28;;;14.00;79.10;;;;;;5017521;28;20398;-77
2021/01/21 11:08:34;;;;;;;0.68;0.30;;;;;;;;;;5021320;28;20744;-75
2021/01/21 11:11:00;;;;;;;0.70;0.40;;;13.80;76.90;;;;;;5032398;28;20403;-73
2021/01/21 11:13:25;;;;;;;0.80;0.30;;;13.80;73.30;;;;;;5019056;28;20383;-75
2021/01/21 11:15:51;;;;;;;0.40;0.30;;;;;;;;;;5021402;28;20383;-75
2021/01/21 11:18:18;;;;;;;0.40;0.30;;;;;;;;;;5019194;28;20829;-74
2021/01/21 11:20:44;;;;;;;0.40;0.30;;;14.10;70.30;;;;;;5015965;28;20426;-74
2021/01/21 11:23:10;;;;;;;1.30;0.30;;;14.00;75.50;;;;;;5051108;28;20812;-78
2021/01/21 11:25:36;;;;;;;0.43;0.30;;;13.70;87.50;;;;;;5019380;28;21327;-75
2021/01/21 11:28:03;;;;;;;0.50;0.30;;;13.90;87.20;;;;;;5033491;28;20395;-74
2021/01/21 11:30:30;;;;;;;0.40;0.30;;;13.90;81.30;;;;;;5018672;28;20383;-79
2021/01/21 11:32:56;;;;;;;0.50;0.30;;;;;;;;;;5020488;28;21489;-75
2021/01/21 11:35:22;;;;;;;0.40;0.28;;;13.50;71.20;;;;;;5015007;28;20468;-77
2021/01/21 11:37:48;;;;;;;0.50;0.30;;;;;;;;;;5018795;28;20427;-75
2021/01/21 11:40:14;;;;;;;0.40;0.30;;;;;;;;;;5016490;28;20429;-77
2021/01/21 11:42:40;;;;;;;0.40;0.30;;;13.70;82.70;;;;;;5018891;28;20466;-76
2021/01/21 11:45:06;;;;;;;0.40;0.30;;;13.70;87.30;;;;;;5020804;28;20441;-77
2021/01/21 11:47:33;;;;;;;0.40;0.30;;;13.50;76.20;;;;;;5018950;28;20395;-74
2021/01/21 11:50:00;;;;;;;0.50;0.30;;;13.70;78.00;;;;;;5033758;28;20419;-75
2021/01/21 11:52:27;;;;;;;0.50;0.30;;;13.60;82.70;;;;;;5018054;28;20450;-75
2021/01/21 11:54:52;;;;;;;0.60;0.40;;;12.90;85.80;;;;;;5020948;28;20492;-75
2021/01/21 11:57:19;;;;;;;1.30;0.30;;;;;;;;;;5016061;28;20403;-75
2021/01/21 11:59:45;;;;;;;0.88;0.50;;;12.40;89.10;;;;;;5018600;28;20710;-75
2021/01/21 12:02:10;;;;;;;0.50;0.30;;;12.80;86.60;;;;;;5016882;28;20391;-78
2021/01/21 12:04:36;;;;;;;1.20;0.30;;;;;;;;;;5017259;28;20428;-74
2021/01/21 12:07:02;;;;;;;0.40;0.30;;;12.70;90.90;;;;;;5019540;28;20500;-77
2021/01/21 12:09:28;;;;;;;0.80;0.50;;;12.60;86.30;;;;;;5020222;28;20494;-74
2021/01/21 12:11:53;;;;;;;0.70;0.50;;;12.80;91.50;;;;;;5017505;28;20856;-74
2021/01/21 12:14:19;;;;;;;0.60;0.43;;;;;;;;;;5019142;28;20422;-74
2021/01/21 12:16:45;;;;;;;0.70;0.50;;;12.30;89.10;;;;;;5020817;28;20379;-74
2021/01/21 12:19:11;;;;;;;0.60;0.47;;;12.40;93.60;;;;;;5018777;28;20733;-79
2021/01/21 12:21:36;;;;;;;0.50;0.30;;;13.10;92.20;;;;;;5016573;28;20406;-76
2021/01/21 12:24:02;;;;;;;0.80;0.40;;;12.20;94.30;;;;;;5021349;28;21115;-77
2021/01/21 12:26:29;;;;;;;0.70;0.50;;;12.10;95.00;;;;;;5017186;28;21241;-73
2021/01/21 12:28:54;;;;;;;0.60;0.40;;;12.00;92.90;;;;;;5019154;28;20440;-78
2021/01/21 12:31:20;;;;;;;0.50;0.40;;;12.00;92.70;;;;;;5016771;28;20395;-77
2021/01/21 12:33:46;;;;;;;0.60;0.40;;;12.20;92.20;;;;;;5024120;28;20422;-75
2021/01/21 12:36:12;;;;;;;0.63;0.47;;;12.70;92.60;;;;;;5019751;28;20399;-78
2021/01/21 12:38:38;;;;;;;0.97;0.60;;;;;;;;;;5022756;28;20903;-74
2021/01/21 12:41:03;;;;;;;0.60;0.50;;;12.20;91.00;;;;;;5021216;28;20383;-74
2021/01/21 12:43:29;;;;;;;2.70;0.60;;;12.00;98.40;;;;;;5020006;28;20443;-78
2021/01/21 12:45:55;;;;;;;0.50;0.40;;;12.10;93.20;;;;;;5022341;28;20410;-76
2021/01/21 12:48:20;;;;;;;0.40;0.30;;;11.90;92.00;;;;;;5019047;28;20396;-74
2021/01/21 12:50:46;;;;;;;1.00;0.50;;;12.20;96.50;;;;;;5018558;28;20945;-77
2021/01/21 12:53:12;;;;;;;0.80;0.40;;;12.70;93.80;;;;;;5023812;28;20394;-78
2021/01/21 12:55:39;;;;;;;0.70;0.30;;;;;;;;;;5038787;28;20486;-77
2021/01/21 12:58:04;;;;;;;0.80;0.40;;;12.20;93.30;;;;;;5022095;28;20384;-75
2021/01/21 13:00:31;;;;;;;0.90;0.60;;;;;;;;;;5021110;28;20957;-76
2021/01/21 13:02:57;;;;;;;0.50;0.30;;;;;;;;;;5023785;28;20466;-77
2021/01/21 13:05:23;;;;;;;1.00;0.60;;;12.20;91.70;;;;;;5017490;28;20453;-74
2021/01/21 13:07:48;;;;;;;0.80;0.57;;;12.30;92.70;;;;;;5022931;28;20506;-77
2021/01/21 13:10:15;;;;;;;1.50;0.40;;;;;;;;;;5020902;28;20402;-78
2021/01/21 13:12:41;;;;;;;0.60;0.40;;;12.50;92.10;;;;;;5020360;28;20763;-75
2021/01/21 13:15:08;;;;;;;0.60;0.40;;;;;;;;;;5051412;28;20423;-76
2021/01/21 13:17:34;;;;;;;0.50;0.40;;;12.60;90.70;;;;;;5038413;28;20375;-75
2021/01/21 13:19:59;;;;;;;0.52;0.40;;;13.00;97.70;;;;;;5053640;28;21521;-74
2021/01/21 13:22:26;;;;;;;0.70;0.40;;;;;;;;;;5019507;28;20414;-74